Time;durP1;ratioP1;P1;durP2;ratioP2;P2;SDS_P1;SDS_P2;PMS_P1;PMS_P2;Temp;Humidity;BMP_temperature;BMP_pressure;BME280_temperature;BME280_humidity;BME280_pressure;Samples;Min_cycle;Max_cycle;Signal;HPM_P1;HPM_P2
2022/08/26 00:00:48;;;;;;;16.95;7.25;;;;;;;20.29;86.37;101415.88;5106534;28;20104;-56
2022/08/26 00:03:14;;;;;;;14.00;7.20;;;;;;;20.32;85.95;101421.88;5094275;28;20660;-55
2022/08/26 00:05:41;;;;;;;15.45;7.85;;;;;;;20.27;86.32;101419.81;5104747;28;20097;-58
2022/08/26 00:08:07;;;;;;;17.55;8.75;;;;;;;20.29;86.03;101417.75;5103613;28;20031;-56
2022/08/26 00:10:33;;;;;;;19.38;8.68;;;;;;;20.26;86.25;101419.00;5101702;28;20031;-56
2022/08/26 00:12:58;;;;;;;15.98;9.13;;;;;;;20.23;86.08;101418.59;5101712;28;20086;-56
2022/08/26 00:15:24;;;;;;;14.82;9.02;;;;;;;20.12;86.70;101420.91;5105046;28;20053;-56
2022/08/26 00:17:51;;;;;;;18.63;9.25;;;;;;;20.20;86.50;101425.25;5100137;28;20046;-57
2022/08/26 00:20:20;;;;;;;16.70;8.48;;;;;;;20.09;86.75;101426.69;5104023;28;20032;-57
2022/08/26 00:22:45;;;;;;;15.70;8.13;;;;;;;20.07;86.65;101425.28;5091619;28;20948;-56
2022/08/26 00:25:11;;;;;;;14.43;8.63;;;;;;;20.13;86.65;101433.31;5101326;28;20031;-56
2022/08/26 00:27:38;;;;;;;16.23;9.00;;;;;;;20.20;86.68;101433.31;5101081;28;20528;-56
2022/08/26 00:30:07;;;;;;;16.85;8.68;;;;;;;20.14;86.30;101424.19;5104315;28;20024;-58
2022/08/26 00:32:32;;;;;;;17.48;8.45;;;;;;;20.19;86.58;101439.75;5104478;28;20024;-56
2022/08/26 00:34:58;;;;;;;17.20;8.13;;;;;;;20.15;86.38;101430.44;5103484;28;20026;-56
2022/08/26 00:37:23;;;;;;;15.90;8.10;;;;;;;20.12;86.60;101428.16;5104430;28;20039;-57
2022/08/26 00:39:48;;;;;;;13.85;8.10;;;;;;;20.11;86.75;101431.88;5097533;28;20541;-57
2022/08/26 00:42:14;;;;;;;17.05;8.25;;;;;;;20.09;86.74;101439.34;5104576;28;20114;-57
2022/08/26 00:44:39;;;;;;;12.80;7.82;;;;;;;20.10;86.99;101438.31;5093613;28;20039;-57
2022/08/26 00:47:20;;;;;;;17.52;8.70;;;;;;;20.08;86.51;101437.69;5093586;28;20524;-56
2022/08/26 00:49:46;;;;;;;17.38;8.25;;;;;;;20.03;87.00;101435.63;5097659;28;20528;-56
2022/08/26 00:52:15;;;;;;;15.23;7.55;;;;;;;20.03;86.98;101432.94;5102529;28;20032;-56
2022/08/26 00:54:47;;;;;;;15.82;7.90;;;;;;;19.99;87.23;101424.44;5094601;28;20116;-58
2022/08/26 00:57:16;;;;;;;16.63;7.70;;;;;;;19.99;87.29;101424.44;5105320;28;20042;-57
2022/08/26 00:59:45;;;;;;;17.83;8.48;;;;;;;19.98;87.28;101433.56;5090806;28;20178;-56
2022/08/26 01:02:11;;;;;;;15.35;7.93;;;;;;;20.01;87.18;101441.22;5093679;28;20066;-58
2022/08/26 01:04:38;;;;;;;16.90;7.78;;;;;;;19.98;87.47;101433.56;5103283;28;20088;-57
2022/08/26 01:07:04;;;;;;;15.25;7.82;;;;;;;20.05;87.48;101430.88;5102811;28;20032;-57
2022/08/26 01:09:31;;;;;;;16.10;7.30;;;;;;;19.99;87.30;101440.59;5101159;28;20101;-56
2022/08/26 01:11:59;;;;;;;17.45;7.13;;;;;;;19.98;87.65;101438.94;5102848;28;20038;-55
2022/08/26 01:14:29;;;;;;;14.55;7.55;;;;;;;19.98;87.51;101438.94;5101785;28;20099;-57
2022/08/26 01:16:54;;;;;;;17.23;7.75;;;;;;;19.99;87.28;101440.59;5104245;28;20035;-57
2022/08/26 01:19:28;;;;;;;14.18;6.97;;;;;;;20.02;87.35;101432.13;5103560;28;20036;-57
2022/08/26 01:22:01;;;;;;;14.80;7.40;;;;;;;20.06;86.91;101440.59;5101002;28;20024;-56
2022/08/26 01:24:29;;;;;;;12.65;6.55;;;;;;;20.00;86.93;101434.19;5103230;28;20027;-57
2022/08/26 01:27:04;;;;;;;21.35;6.60;;;;;;;20.04;86.84;101423.84;5100489;28;20019;-57
2022/08/26 01:29:32;;;;;;;14.43;6.38;;;;;;;19.97;86.65;101423.00;5101753;28;20479;-57
2022/08/26 01:31:57;;;;;;;14.60;6.70;;;;;;;20.00;87.62;101436.91;5103182;28;20039;-58
2022/08/26 01:34:29;;;;;;;14.30;6.35;;;;;;;19.98;86.81;101417.41;5103097;28;20034;-56
2022/08/26 01:37:05;;;;;;;14.13;6.60;;;;;;;19.98;87.19;101432.75;5096784;28;20036;-58
2022/08/26 01:39:33;;;;;;;11.65;5.93;;;;;;;19.92;86.74;101423.59;5097169;28;20441;-59
2022/08/26 01:41:59;;;;;;;12.88;6.28;;;;;;;19.97;87.08;101426.53;5101173;28;20046;-57
2022/08/26 01:44:30;;;;;;;15.30;6.38;;;;;;;19.92;87.13;101433.56;5093227;28;20047;-57
2022/08/26 01:46:57;;;;;;;11.80;5.60;;;;;;;19.93;87.60;101429.84;5102867;28;20060;-56
2022/08/26 01:49:23;;;;;;;13.70;5.88;;;;;;;19.90;87.10;101431.88;5096877;28;20032;-57
2022/08/26 01:51:51;;;;;;;13.20;5.68;;;;;;;19.90;87.17;101436.47;5101995;28;20138;-57
2022/08/26 01:54:17;;;;;;;11.75;5.40;;;;;;;19.94;87.13;101442.25;5100897;28;20035;-58
2022/08/26 01:56:42;;;;;;;14.23;5.35;;;;;;;19.92;86.71;101442.44;5100416;28;20024;-56
2022/08/26 01:59:13;;;;;;;13.10;5.18;;;;;;;19.95;86.49;101433.13;5102885;28;20553;-58
2022/08/26 02:01:38;;;;;;;12.23;4.93;;;;;;;19.94;86.05;101426.94;5096831;28;20035;-58
2022/08/26 02:04:16;;;;;;;13.73;4.72;;;;;;;19.90;86.24;101431.88;5099716;28;20575;-57
2022/08/26 02:06:42;;;;;;;10.13;4.60;;;;;;;19.92;86.29;101434.38;5099073;28;20031;-57
2022/08/26 02:09:08;;;;;;;10.77;3.80;;;;;;;19.90;85.89;101433.75;5097882;28;20027;-56
2022/08/26 02:11:34;;;;;;;12.55;3.97;;;;;;;19.83;85.96;101443.72;5100853;28;20031;-57
2022/08/26 02:14:04;;;;;;;10.80;3.83;;;;;;;19.85;85.99;101438.94;5104943;28;20051;-57
2022/08/26 02:16:35;;;;;;;11.13;3.58;;;;;;;19.83;86.28;101446.41;5103354;28;20028;-56
2022/08/26 02:19:01;;;;;;;10.63;3.70;;;;;;;19.75;86.34;101445.56;5103763;28;20050;-57
2022/08/26 02:21:28;;;;;;;10.30;3.28;;;;;;;19.81;85.89;101443.09;5095913;28;20837;-57
2022/08/26 02:23:54;;;;;;;10.75;3.50;;;;;;;19.84;85.81;101448.06;5107264;28;20064;-57
2022/08/26 02:26:24;;;;;;;6.90;3.28;;;;;;;19.79;85.91;101459.47;5097025;28;20080;-59
2022/08/26 02:28:57;;;;;;;8.20;3.15;;;;;;;19.80;85.94;101457.56;5107304;28;20438;-59
2022/08/26 02:31:23;;;;;;;6.25;3.20;;;;;;;19.80;85.89;101455.72;5095935;28;20024;-58
2022/08/26 02:33:48;;;;;;;10.38;3.40;;;;;;;19.73;86.22;101463.78;5104104;28;20046;-59
2022/08/26 02:36:22;;;;;;;10.02;3.42;;;;;;;19.73;86.28;101463.78;5101516;28;20027;-57
2022/08/26 02:38:47;;;;;;;10.43;3.05;;;;;;;19.72;85.60;101464.84;5102304;28;20031;-57
2022/08/26 02:41:13;;;;;;;11.75;3.50;;;;;;;19.75;86.19;101466.28;5099690;28;20028;-57
2022/08/26 02:43:38;;;;;;;10.57;3.13;;;;;;;19.62;86.46;101467.09;5102859;27;20038;-57
2022/08/26 02:46:04;;;;;;;12.18;3.20;;;;;;;19.72;86.09;101456.75;5106584;28;20046;-57
2022/08/26 02:48:30;;;;;;;6.03;2.97;;;;;;;19.76;86.00;101459.84;5105005;28;20047;-57
2022/08/26 02:50:57;;;;;;;7.32;3.15;;;;;;;19.67;85.93;101459.25;5101005;28;20598;-57
2022/08/26 02:53:23;;;;;;;9.45;3.20;;;;;;;19.70;85.91;101452.63;5106380;28;20672;-58
2022/08/26 02:55:48;;;;;;;9.23;2.90;;;;;;;19.72;86.01;101451.38;5104136;28;20038;-56
2022/08/26 02:58:14;;;;;;;10.68;3.40;;;;;;;19.68;85.70;101455.50;5104817;28;20020;-57
2022/08/26 03:00:40;;;;;;;7.65;3.20;;;;;;;19.60;86.41;101466.50;5105072;28;20039;-56
2022/08/26 03:03:06;;;;;;;11.35;3.40;;;;;;;19.64;86.08;101470.44;5103996;28;20027;-56
2022/08/26 03:05:32;;;;;;;10.35;3.40;;;;;;;19.68;86.37;101455.50;5105232;28;20111;-56
2022/08/26 03:07:58;;;;;;;10.80;4.03;;;;;;;19.58;86.88;101461.31;5106257;28;20082;-56
2022/08/26 03:10:23;;;;;;;12.52;4.10;;;;;;;19.55;86.93;101461.72;5099206;28;20844;-56
2022/08/26 03:12:48;;;;;;;11.40;3.83;;;;;;;19.54;86.98;101464.63;5103125;28;20027;-57
2022/08/26 03:15:17;;;;;;;10.90;4.40;;;;;;;19.53;87.21;101446.84;5104512;28;20023;-57
2022/08/26 03:17:43;;;;;;;8.38;4.07;;;;;;;19.66;86.82;101454.06;5106302;28;20032;-58
2022/08/26 03:20:09;;;;;;;12.65;4.50;;;;;;;19.59;87.31;101451.38;5087236;28;20127;-57
2022/08/26 03:22:38;;;;;;;13.80;4.50;;;;;;;19.58;87.21;101455.09;5103944;28;20050;-56
2022/08/26 03:25:05;;;;;;;15.85;4.63;;;;;;;19.57;87.42;101458.81;5100677;28;20106;-58
2022/08/26 03:27:31;;;;;;;12.65;4.50;;;;;;;19.49;87.76;101458.00;5100102;28;20089;-57
2022/08/26 03:32:43;;;;;;;11.73;4.60;;;;;;;19.49;88.28;101463.38;5104436;28;20034;-56
2022/08/26 03:35:09;;;;;;;10.35;4.15;;;;;;;19.55;88.29;101466.28;5104812;28;20051;-58
2022/08/26 03:37:34;;;;;;;11.57;4.32;;;;;;;19.54;87.60;101475.38;5096912;28;20060;-56
2022/08/26 03:40:00;;;;;;;12.75;4.18;;;;;;;19.53;87.58;101468.34;5105121;28;20035;-57
2022/08/26 03:42:25;;;;;;;12.63;4.20;;;;;;;19.52;87.52;101462.13;5082893;28;20062;-57
2022/08/26 03:44:50;;;;;;;12.68;4.00;;;;;;;19.48;87.66;101461.72;5099778;28;20047;-56
2022/08/26 03:47:16;;;;;;;10.10;4.07;;;;;;;19.53;88.00;101468.34;5103501;28;20047;-56
2022/08/26 03:49:41;;;;;;;11.63;3.95;;;;;;;19.54;87.81;101464.63;5100251;28;20069;-57
2022/08/26 03:52:06;;;;;;;11.38;4.28;;;;;;;19.46;87.92;101469.19;5096347;28;20480;-56
2022/08/26 03:54:32;;;;;;;11.60;3.95;;;;;;;19.42;88.35;101473.31;5100580;28;20880;-59
2022/08/26 03:56:57;;;;;;;8.60;3.58;;;;;;;19.48;88.08;101467.09;5101214;28;20461;-57
2022/08/26 03:59:23;;;;;;;10.13;3.78;;;;;;;19.43;88.23;101463.34;5099446;28;20039;-56
2022/08/26 04:01:48;;;;;;;9.88;3.70;;;;;;;19.42;88.52;101473.31;5100529;28;20043;-56
2022/08/26 04:04:13;;;;;;;12.02;3.67;;;;;;;19.42;88.13;101473.31;5102541;28;20024;-57
2022/08/26 04:06:43;;;;;;;9.63;3.30;;;;;;;19.40;87.90;101472.69;5088696;28;20396;-57
2022/08/26 04:09:16;;;;;;;6.93;3.40;;;;;;;19.43;88.17;101469.56;5099737;28;20042;-58
2022/08/26 04:11:43;;;;;;;13.05;3.40;;;;;;;19.49;87.99;101466.06;5105446;28;20020;-57
2022/08/26 04:14:13;;;;;;;9.18;3.42;;;;;;;19.45;87.80;101472.88;5104471;28;20066;-58
2022/08/26 04:16:38;;;;;;;11.95;3.92;;;;;;;19.45;87.82;101467.50;5101919;28;20108;-56
2022/08/26 04:19:04;;;;;;;10.98;3.72;;;;;;;19.43;88.22;101468.72;5095630;28;20794;-56
2022/08/26 04:21:29;;;;;;;10.10;3.50;;;;;;;19.45;87.93;101467.50;5105422;28;20264;-58
2022/08/26 04:23:55;;;;;;;11.40;3.90;;;;;;;19.43;87.81;101474.13;5103052;28;20040;-60
2022/08/26 04:26:21;;;;;;;11.48;3.42;;;;;;;19.42;87.98;101464.41;5102339;28;20084;-60
2022/08/26 04:28:48;;;;;;;11.73;3.50;;;;;;;19.44;88.03;101465.03;5105051;28;20053;-59
2022/08/26 04:31:15;;;;;;;8.98;3.50;;;;;;;19.41;88.00;101466.28;5104416;28;20063;-59
2022/08/26 04:33:42;;;;;;;11.00;3.72;;;;;;;19.37;88.10;101465.00;5100826;28;20043;-60
2022/08/26 04:36:08;;;;;;;10.38;3.42;;;;;;;19.40;88.05;101467.31;5096501;28;20047;-61
2022/08/26 04:38:33;;;;;;;10.60;3.40;;;;;;;19.34;88.13;101462.75;5100615;28;20480;-60
2022/08/26 04:40:59;;;;;;;12.40;3.50;;;;;;;19.30;88.42;101464.19;5104526;28;20085;-60
2022/08/26 04:43:29;;;;;;;11.13;3.75;;;;;;;19.29;88.69;101466.03;5098066;28;20096;-60
2022/08/26 04:45:55;;;;;;;12.52;3.63;;;;;;;19.31;88.79;101471.22;5101924;28;20096;-60
2022/08/26 04:48:21;;;;;;;9.50;3.30;;;;;;;19.33;88.35;101479.91;5091741;28;20043;-60
2022/08/26 04:50:46;;;;;;;11.00;3.80;;;;;;;19.34;88.37;101476.19;5097973;28;20436;-61
2022/08/26 04:53:12;;;;;;;9.43;3.30;;;;;;;19.35;88.31;101477.84;5103319;28;20034;-60
2022/08/26 04:55:38;;;;;;;7.47;3.30;;;;;;;19.33;88.10;101474.53;5102471;28;20059;-60
2022/08/26 04:58:03;;;;;;;9.65;3.33;;;;;;;19.30;88.61;101472.25;5105038;28;20027;-60
2022/08/26 05:00:29;;;;;;;9.38;3.30;;;;;;;19.32;88.43;101472.88;5104833;28;20484;-60
2022/08/26 05:02:54;;;;;;;8.80;3.30;;;;;;;19.28;88.61;101477.03;5105025;28;20114;-60
2022/08/26 05:05:20;;;;;;;13.20;3.55;;;;;;;19.27;88.38;101475.34;5099911;28;20114;-60
2022/08/26 05:07:45;;;;;;;8.38;3.42;;;;;;;19.26;88.80;101473.69;5102090;28;20439;-60
2022/08/26 05:10:10;;;;;;;9.18;3.15;;;;;;;19.24;88.92;101483.81;5105212;28;20062;-60
2022/08/26 05:12:36;;;;;;;8.23;2.97;;;;;;;19.33;88.94;101480.72;5100075;28;20114;-60
2022/08/26 05:15:01;;;;;;;11.07;3.58;;;;;;;19.32;88.64;101478.25;5102637;28;20461;-61
2022/08/26 05:17:26;;;;;;;7.05;3.40;;;;;;;19.29;88.70;101484.03;5102295;28;20035;-60
2022/08/26 05:19:52;;;;;;;9.70;3.40;;;;;;;19.29;88.86;101486.72;5099168;28;20091;-60
2022/08/26 05:22:17;;;;;;;9.98;3.30;;;;;;;19.31;89.00;101477.44;5099785;28;20035;-60
2022/08/26 05:24:42;;;;;;;11.02;3.25;;;;;;;19.33;88.66;101479.91;5096950;28;20530;-60
2022/08/26 05:27:08;;;;;;;9.32;3.40;;;;;;;19.29;88.91;101478.66;5101380;28;20036;-60
2022/08/26 05:29:33;;;;;;;7.35;2.90;;;;;;;19.34;88.38;101476.19;5102331;28;20172;-60
2022/08/26 05:32:00;;;;;;;10.25;3.10;;;;;;;19.34;88.78;101486.97;5099053;28;20503;-60
2022/08/26 05:34:26;;;;;;;9.40;3.17;;;;;;;19.30;88.87;101480.31;5093501;28;20031;-60
2022/08/26 05:36:52;;;;;;;7.70;2.95;;;;;;;19.37;88.87;101486.53;5103485;28;20083;-60
2022/08/26 05:39:18;;;;;;;6.78;3.10;;;;;;;19.40;88.62;101486.13;5096124;28;20499;-60
2022/08/26 05:41:44;;;;;;;9.30;3.03;;;;;;;19.42;88.58;101492.13;5104412;28;20031;-61
2022/08/26 05:44:12;;;;;;;9.18;3.15;;;;;;;19.39;88.01;101492.53;5084899;28;20020;-60
2022/08/26 05:46:38;;;;;;;9.90;3.03;;;;;;;19.44;87.96;101494.63;5098343;28;20089;-60
2022/08/26 05:49:06;;;;;;;8.13;2.90;;;;;;;19.49;88.05;101494.84;5099316;28;20159;-60
2022/08/26 05:51:33;;;;;;;10.27;3.10;;;;;;;19.55;88.25;101499.41;5107865;28;20153;-60
2022/08/26 05:54:01;;;;;;;11.15;3.15;;;;;;;19.51;87.51;101505.38;5108460;28;20077;-60
2022/08/26 05:56:27;;;;;;;9.23;3.20;;;;;;;19.54;88.28;101507.66;5106104;28;20043;-60
2022/08/26 05:58:55;;;;;;;12.23;3.25;;;;;;;19.57;88.33;101510.75;5107752;28;20135;-61
2022/08/26 06:01:26;;;;;;;11.55;3.10;;;;;;;19.57;87.88;101512.63;5096553;28;20027;-60
2022/08/26 06:03:57;;;;;;;8.55;2.70;;;;;;;19.64;87.58;101516.16;5097307;28;20034;-60
2022/08/26 06:06:25;;;;;;;9.32;2.95;;;;;;;19.61;87.60;101524.63;5103204;28;20377;-61
2022/08/26 06:08:52;;;;;;;8.77;2.70;;;;;;;19.65;87.42;101527.72;5106332;28;20032;-61
2022/08/26 06:11:24;;;;;;;8.75;2.70;;;;;;;19.66;87.53;101524.84;5106728;28;20032;-60
2022/08/26 06:13:50;;;;;;;11.57;2.95;;;;;;;19.59;87.03;101529.41;5105947;28;20061;-60
2022/08/26 06:16:19;;;;;;;10.43;3.00;;;;;;;19.61;86.84;101524.63;5104506;28;20077;-60
2022/08/26 06:18:46;;;;;;;7.10;2.70;;;;;;;19.57;87.10;101531.44;5107042;28;20118;-60
2022/08/26 06:21:26;;;;;;;8.32;2.45;;;;;;;19.57;87.15;101534.97;5104815;28;20027;-61
2022/08/26 06:26:39;;;;;;;8.82;2.45;;;;;;;19.61;86.81;101536.22;5106764;28;20605;-60
2022/08/26 06:29:05;;;;;;;4.90;2.10;;;;;;;19.64;86.72;101537.69;5099277;28;20039;-61
2022/08/26 06:31:35;;;;;;;7.97;2.58;;;;;;;19.68;86.50;101544.28;5104429;28;20061;-61
2022/08/26 06:34:01;;;;;;;7.20;2.33;;;;;;;19.70;86.89;101538.72;5105755;28;20119;-60
2022/08/26 06:36:29;;;;;;;8.15;2.50;;;;;;;19.63;86.67;101541.38;5102675;28;20096;-60
2022/08/26 06:39:00;;;;;;;5.47;2.20;;;;;;;19.65;87.43;101536.66;5104141;28;20114;-60
2022/08/26 06:41:26;;;;;;;8.80;2.45;;;;;;;19.72;86.54;101542.84;5104967;28;20070;-60
2022/08/26 06:43:51;;;;;;;5.00;2.25;;;;;;;19.80;86.64;101549.06;5098115;28;20380;-61
2022/08/26 06:46:20;;;;;;;11.63;2.53;;;;;;;19.76;86.73;101544.09;5100966;28;20016;-61
2022/08/26 06:48:46;;;;;;;8.23;2.45;;;;;;;19.73;85.71;101549.88;5102415;28;20055;-60
2022/08/26 06:51:13;;;;;;;8.73;2.50;;;;;;;19.72;86.15;101550.94;5101414;28;20086;-60
2022/08/26 06:53:40;;;;;;;4.45;2.10;;;;;;;19.69;85.90;101548.63;5095065;28;20105;-60
2022/08/26 06:56:09;;;;;;;10.52;2.45;;;;;;;19.70;85.98;101550.31;5100389;28;20055;-60
2022/08/26 06:58:36;;;;;;;10.07;2.60;;;;;;;19.70;85.05;101554.84;5104932;28;20460;-61
2022/08/26 07:01:02;;;;;;;9.02;2.30;;;;;;;19.66;86.13;101554.44;5100332;28;20066;-60
2022/08/26 07:03:28;;;;;;;8.23;2.22;;;;;;;19.66;85.79;101557.13;5101916;28;20043;-60
2022/08/26 07:06:00;;;;;;;6.28;2.20;;;;;;;19.72;86.41;101558.16;5103396;28;20032;-60
2022/08/26 07:08:26;;;;;;;10.20;2.50;;;;;;;19.78;86.68;101557.34;5095980;28;20055;-60
2022/08/26 07:10:51;;;;;;;8.65;2.53;;;;;;;19.78;85.94;101551.16;5101342;28;20172;-60
2022/08/26 07:13:17;;;;;;;8.52;2.50;;;;;;;19.86;85.96;101553.63;5102493;27;20031;-60
2022/08/26 07:15:42;;;;;;;4.85;2.10;;;;;;;19.82;85.34;101552.38;5094985;28;20078;-60
2022/08/26 07:18:08;;;;;;;6.65;2.50;;;;;;;19.83;84.86;101554.06;5076794;28;20046;-59
2022/08/26 07:20:38;;;;;;;8.05;2.40;;;;;;;19.93;85.81;101554.44;5101549;28;20921;-60
2022/08/26 07:23:04;;;;;;;8.85;2.42;;;;;;;19.95;85.04;101557.78;5101124;28;20030;-57
2022/08/26 07:25:30;;;;;;;8.52;2.40;;;;;;;19.99;84.80;101552.84;5102212;28;21328;-58
2022/08/26 07:27:55;;;;;;;6.25;2.30;;;;;;;19.98;84.25;101567.34;5100995;28;20422;-58
2022/08/26 07:30:20;;;;;;;6.97;2.20;;;;;;;20.02;82.54;101566.72;5105885;28;20032;-57
2022/08/26 07:32:46;;;;;;;8.43;2.13;;;;;;;20.04;83.15;101569.19;5106576;28;20032;-57
2022/08/26 07:35:11;;;;;;;8.85;2.55;;;;;;;20.02;83.68;101563.19;5100602;28;20068;-57
2022/08/26 07:37:36;;;;;;;7.55;2.13;;;;;;;20.09;83.56;101566.69;5106544;28;20023;-57
2022/08/26 07:40:03;;;;;;;7.80;2.30;;;;;;;20.14;82.68;101566.09;5106660;28;20042;-58
2022/08/26 07:42:29;;;;;;;6.07;2.03;;;;;;;20.21;82.01;101572.28;5105745;28;20410;-56
2022/08/26 07:44:54;;;;;;;9.68;2.15;;;;;;;20.19;81.52;101569.00;5105805;28;20031;-58
2022/08/26 07:47:19;;;;;;;10.07;2.75;;;;;;;20.16;80.82;101581.00;5105627;28;20131;-58
2022/08/26 07:49:44;;;;;;;9.13;3.03;;;;;;;20.25;80.57;101572.69;5103333;28;20042;-58
2022/08/26 07:52:10;;;;;;;6.35;2.05;;;;;;;20.27;81.93;101582.22;5099898;28;20107;-58
2022/08/26 07:54:36;;;;;;;7.00;2.20;;;;;;;20.35;80.79;101577.66;5104001;28;20040;-59
2022/08/26 07:57:03;;;;;;;5.32;2.30;;;;;;;20.39;81.93;101573.50;5106007;28;20031;-57
2022/08/26 07:59:28;;;;;;;6.38;2.10;;;;;;;20.47;81.71;101573.28;5105231;28;20114;-57
2022/08/26 08:01:56;;;;;;;8.43;2.10;;;;;;;20.59;81.20;101578.03;5105878;28;20111;-59
2022/08/26 08:04:21;;;;;;;8.50;2.47;;;;;;;20.62;79.29;101580.31;5104108;28;20023;-57
2022/08/26 08:06:46;;;;;;;7.35;2.42;;;;;;;20.59;79.88;101584.25;5105641;28;20027;-57
2022/08/26 08:09:14;;;;;;;10.15;2.35;;;;;;;20.54;79.21;101587.56;5103804;28;20518;-57
2022/08/26 08:11:40;;;;;;;7.80;2.60;;;;;;;20.53;79.33;101588.59;5097208;28;20590;-57
2022/08/26 08:14:06;;;;;;;8.82;2.40;;;;;;;20.47;79.23;101581.38;5104913;28;20832;-57
2022/08/26 08:16:31;;;;;;;9.25;2.42;;;;;;;20.49;78.13;101589.25;5105523;28;20027;-58
2022/08/26 08:18:56;;;;;;;11.55;2.33;;;;;;;20.48;78.17;101590.28;5104758;28;20579;-57
2022/08/26 08:21:24;;;;;;;21.45;3.40;;;;;;;20.50;79.04;101586.34;5095703;28;20063;-57
2022/08/26 08:23:54;;;;;;;10.15;2.40;;;;;;;20.56;78.18;101590.91;5103569;28;20115;-57
2022/08/26 08:26:20;;;;;;;7.15;2.30;;;;;;;20.58;78.00;101584.47;5105532;28;20039;-58
2022/08/26 08:28:46;;;;;;;9.20;2.20;;;;;;;20.54;78.04;101586.75;5104807;28;20047;-58
2022/08/26 08:31:22;;;;;;;7.90;2.15;;;;;;;20.55;78.39;101594.63;5089230;28;20128;-57
2022/08/26 08:33:48;;;;;;;8.90;2.17;;;;;;;20.51;78.19;101593.38;5102413;28;20032;-58
2022/08/26 08:36:15;;;;;;;12.23;2.20;;;;;;;20.56;78.86;101590.91;5105282;28;20042;-59
2022/08/26 08:38:40;;;;;;;10.57;2.40;;;;;;;20.66;78.57;101589.63;5104237;28;20027;-60
2022/08/26 08:41:21;;;;;;;8.02;2.15;;;;;;;20.73;77.52;101595.00;5104742;28;20499;-59
2022/08/26 08:43:47;;;;;;;8.60;2.20;;;;;;;20.65;76.35;101587.97;5104503;28;20055;-57
2022/08/26 08:46:15;;;;;;;7.72;2.00;;;;;;;20.69;76.92;101583.81;5103658;28;20165;-57
2022/08/26 08:48:45;;;;;;;6.65;1.90;;;;;;;20.71;76.54;101581.72;5091302;28;20577;-57
2022/08/26 08:51:37;;;;;;;6.95;2.15;;;;;;;20.80;76.21;101591.25;5104084;28;20059;-59
2022/08/26 08:54:03;;;;;;;8.97;2.23;;;;;;;20.74;75.64;101589.41;5095436;28;20051;-58
2022/08/26 08:56:37;;;;;;;7.65;2.20;;;;;;;20.66;76.15;101589.63;5100643;28;20047;-57
2022/08/26 08:59:02;;;;;;;7.90;2.00;;;;;;;20.67;76.04;101597.50;5095516;28;20023;-58
2022/08/26 09:01:57;;;;;;;6.28;2.17;;;;;;;20.66;76.38;101595.00;5103683;28;20042;-59
2022/08/26 09:04:28;;;;;;;7.18;1.88;;;;;;;20.63;75.99;101595.44;5100458;28;20110;-58
2022/08/26 09:06:57;;;;;;;6.57;1.90;;;;;;;20.51;75.83;101588.00;5098156;28;20028;-59
2022/08/26 09:09:31;;;;;;;7.18;2.10;;;;;;;20.56;75.77;101595.44;5100483;28;20052;-59
2022/08/26 09:11:57;;;;;;;10.25;2.17;;;;;;;20.62;75.48;101601.88;5095683;28;20059;-57
2022/08/26 09:14:24;;;;;;;6.63;2.10;;;;;;;20.62;76.84;101601.88;5104694;28;20055;-57
2022/08/26 09:17:21;;;;;;;6.85;2.20;;;;;;;20.81;75.61;101603.69;5092829;28;20103;-57
2022/08/26 09:19:51;;;;;;;8.27;2.25;;;;;;;20.78;75.54;101597.91;5093391;28;20388;-57
2022/08/26 09:22:28;;;;;;;6.35;2.00;;;;;;;20.81;74.84;101592.91;5102757;28;20046;-58
2022/08/26 09:24:55;;;;;;;9.40;2.00;;;;;;;20.88;75.17;101600.19;5098485;28;20126;-57
2022/08/26 09:27:46;;;;;;;10.43;2.15;;;;;;;20.96;74.87;101610.72;5095324;28;20031;-58
2022/08/26 09:30:17;;;;;;;9.45;2.15;;;;;;;21.01;73.94;101602.81;5107194;28;20043;-58
2022/08/26 09:32:43;;;;;;;6.00;1.92;;;;;;;20.99;73.60;101613.00;5103796;28;20040;-58
2022/08/26 09:35:25;;;;;;;8.35;2.20;;;;;;;21.01;74.08;101610.09;5108036;28;20055;-58
2022/08/26 09:37:51;;;;;;;5.75;2.00;;;;;;;20.95;74.33;101609.91;5102696;28;20042;-58
2022/08/26 09:40:26;;;;;;;9.68;2.13;;;;;;;20.97;73.75;101617.78;5108126;28;20059;-57
2022/08/26 09:43:09;;;;;;;7.95;2.38;;;;;;;21.01;74.08;101613.59;5108952;28;20027;-58
2022/08/26 09:45:35;;;;;;;6.32;1.80;;;;;;;20.98;73.06;101622.13;5095323;28;20031;-57
2022/08/26 09:48:01;;;;;;;7.28;2.03;;;;;;;20.90;73.81;101612.41;5107076;28;20054;-57
2022/08/26 09:50:37;;;;;;;7.03;2.10;;;;;;;20.81;73.67;101619.03;5108590;28;20027;-57
2022/08/26 09:53:05;;;;;;;6.60;2.20;;;;;;;20.84;74.55;101613.22;5108335;28;20031;-58
2022/08/26 09:55:30;;;;;;;8.77;2.20;;;;;;;20.87;73.68;101612.00;5096713;28;20027;-57
2022/08/26 09:57:55;;;;;;;9.73;2.10;;;;;;;20.73;73.78;101612.00;5100371;28;20497;-57
2022/08/26 10:00:26;;;;;;;6.80;1.83;;;;;;;20.72;74.78;101615.72;5096412;28;20028;-57
2022/08/26 10:02:52;;;;;;;7.47;2.15;;;;;;;20.78;75.27;101614.88;5107591;28;20058;-58
2022/08/26 10:05:32;;;;;;;8.07;2.20;;;;;;;20.81;75.07;101614.47;5099531;28;20028;-58
2022/08/26 10:07:58;;;;;;;6.82;1.92;;;;;;;20.86;74.40;101613.06;5105840;28;20084;-57
2022/08/26 10:10:39;;;;;;;6.68;2.08;;;;;;;20.91;74.75;101624.00;5107200;28;20024;-58
2022/08/26 10:13:11;;;;;;;11.55;2.40;;;;;;;20.87;74.00;101622.78;5106708;28;20050;-57
2022/08/26 10:15:51;;;;;;;6.87;2.10;;;;;;;20.85;73.30;101619.44;5094527;28;20020;-57
2022/08/26 10:18:25;;;;;;;8.43;2.20;;;;;;;20.82;73.41;101616.13;5107023;28;20116;-57
2022/08/26 10:21:01;;;;;;;8.88;2.25;;;;;;;20.79;73.91;101616.56;5105970;28;20042;-59
2022/08/26 10:23:30;;;;;;;6.03;2.05;;;;;;;20.75;73.76;101615.31;5099112;28;20032;-59
2022/08/26 10:26:03;;;;;;;7.88;1.90;;;;;;;20.82;73.72;101610.72;5107451;28;20507;-58
2022/08/26 10:28:36;;;;;;;10.48;2.38;;;;;;;20.84;73.67;101615.91;5105377;28;20027;-58
2022/08/26 10:31:22;;;;;;;5.65;2.13;;;;;;;20.91;73.58;101610.53;5094878;28;20033;-58
2022/08/26 10:33:47;;;;;;;10.63;2.28;;;;;;;20.84;72.71;101607.81;5105141;28;20035;-57
2022/08/26 10:39:06;;;;;;;6.95;2.08;;;;;;;20.78;74.29;101614.06;5104506;28;20054;-57
2022/08/26 10:41:39;;;;;;;6.65;1.80;;;;;;;20.70;73.88;101609.72;5107532;28;20035;-58
2022/08/26 10:44:07;;;;;;;;;;;;;;;20.92;73.44;101615.72;5105831;28;20028;-57
2022/08/26 10:46:50;;;;;;;9.40;2.20;;;;;;;20.98;73.01;101608.66;5107137;28;20010;-59
2022/08/26 10:49:16;;;;;;;8.68;2.17;;;;;;;20.94;73.02;101612.81;5106899;28;20413;-58
2022/08/26 10:51:49;;;;;;;9.50;2.15;;;;;;;21.00;73.32;101605.72;5106427;28;20020;-58
2022/08/26 10:54:26;;;;;;;;;;;;;;;21.09;72.73;101605.28;5096245;28;20048;-57
2022/08/26 10:56:56;;;;;;;5.82;1.88;;;;;;;20.96;73.40;101610.72;5093155;28;19918;-58
2022/08/26 10:59:58;;;;;;;5.68;1.80;;;;;;;21.03;73.15;101608.84;5106622;28;20043;-57
2022/08/26 11:02:29;;;;;;;5.63;1.77;;;;;;;20.91;72.75;101615.91;5100800;28;20032;-57
2022/08/26 11:05:01;;;;;;;6.20;1.70;;;;;;;20.85;72.71;101619.44;5104683;28;20031;-59
2022/08/26 11:07:29;;;;;;;6.20;2.30;;;;;;;20.77;73.26;101615.91;5100692;28;20345;-58
2022/08/26 11:09:55;;;;;;;4.95;1.88;;;;;;;20.77;72.52;101624.00;5103323;28;20028;-57
2022/08/26 11:12:35;;;;;;;6.30;1.52;;;;;;;20.83;72.53;101623.16;5093748;28;20024;-58
2022/08/26 11:15:04;;;;;;;5.55;1.60;;;;;;;20.62;72.52;101623.44;5107147;28;20039;-58
2022/08/26 11:17:44;;;;;;;9.13;1.92;;;;;;;20.60;73.23;101617.41;5093281;28;20036;-57
2022/08/26 11:20:22;;;;;;;7.68;1.90;;;;;;;20.59;73.61;101621.13;5107054;28;20563;-57
2022/08/26 11:22:51;;;;;;;10.23;2.08;;;;;;;20.51;73.54;101609.56;5105382;28;20038;-58
2022/08/26 11:25:18;;;;;;;8.52;1.88;;;;;;;20.61;74.14;101622.59;5103576;28;20040;-58
2022/08/26 11:27:47;;;;;;;6.35;2.03;;;;;;;20.61;74.42;101621.78;5105813;28;20037;-57
2022/08/26 11:30:12;;;;;;;6.57;2.17;;;;;;;20.60;74.00;101609.31;5106676;28;20023;-57
2022/08/26 11:32:37;;;;;;;8.25;2.05;;;;;;;20.63;74.04;101611.59;5096600;28;20093;-57
2022/08/26 11:35:28;;;;;;;7.82;2.28;;;;;;;20.65;74.78;101609.53;5103608;28;20068;-57